Burns Harbor, Indiana
Current Conditions -  °F | °C
As of 10:56 PM on Sunday 19 Oct 2014 (Local Time) from KVPZ Reporting Station
Overcast Overcast  
Wind Chill: 43°   Ceiling: 9000
Heat Index: 49°   Visibility: 10mi
Dew Point: 42°   Wind: 15mph
Humidity: 77%   Direction: 210°SSW
Pressure: 29.97"   Gusts: NA
Location:  41.6139°N, 87.0454°W
Report Text: KVPZ 200356Z AUTO 21013KT 10SM OVC090 09/06 A2997 RMK AO2 SLP150 T00940056 TSNO
Loading
Personal Weather Stations






























Interactive Weather Map
Tropical Storm Tracking
New forecast layout! Learn more

10-Day Weather Forecast

Advertisements
Track Severe Weather on mobile